LOT2WA ESMS-EPWA
Flight info
| Callsign | LOT2WA |
|---|---|
| Flight time | 0h 59m |
| Altitude | 35000 |
| Route | TELMO Z491 KEKOV N195 SORIX |
| Aircraft | B739/M-VGDW/C |
Departure
| Time | 2026-05-07 18:01 |
|---|---|
| Airport | Malmö Sturup Airport (ESMS) |
Arrival
| Time | 2026-05-07 19:00 |
|---|---|
| Airport | Warsaw Chopin Airport (EPWA) |
| Time | Latitude | Longitude | Altitude | Speed | Heading |
|---|---|---|---|---|---|
| 2026-05-07 17:42 | 55.54103 | 13.36850 | 230 ft | 0 kts | 173° |
| 2026-05-07 17:54 | 55.54118 | 13.36847 | 230 ft | 2 kts | 173° |
| 2026-05-07 17:54 | 55.54134 | 13.36843 | 234 ft | 2 kts | 173° |
| 2026-05-07 17:54 | 55.54151 | 13.36840 | 231 ft | 2 kts | 173° |
| 2026-05-07 17:54 | 55.54167 | 13.36836 | 230 ft | 2 kts | 132° |
| 2026-05-07 17:55 | 55.54170 | 13.36827 | 232 ft | 0 kts | 91° |
| 2026-05-07 17:57 | 55.54170 | 13.36835 | 230 ft | 3 kts | 91° |
| 2026-05-07 17:57 | 55.54171 | 13.36874 | 231 ft | 7 kts | 88° |
| 2026-05-07 17:57 | 55.54178 | 13.37016 | 230 ft | 10 kts | 83° |
| 2026-05-07 17:57 | 55.54203 | 13.37133 | 232 ft | 10 kts | 61° |
| 2026-05-07 17:58 | 55.54260 | 13.37196 | 230 ft | 10 kts | 1° |
| 2026-05-07 17:58 | 55.54328 | 13.37184 | 230 ft | 10 kts | 353° |
| 2026-05-07 17:58 | 55.54396 | 13.37169 | 230 ft | 10 kts | 353° |
| 2026-05-07 17:58 | 55.54465 | 13.37155 | 230 ft | 10 kts | 353° |
| 2026-05-07 17:59 | 55.54539 | 13.37139 | 230 ft | 11 kts | 353° |
| 2026-05-07 17:59 | 55.54619 | 13.37136 | 232 ft | 12 kts | 9° |
| 2026-05-07 17:59 | 55.54687 | 13.37182 | 230 ft | 11 kts | 24° |
| 2026-05-07 17:59 | 55.54758 | 13.37237 | 233 ft | 11 kts | 27° |
| 2026-05-07 18:00 | 55.54787 | 13.37339 | 230 ft | 10 kts | 104° |
| 2026-05-07 18:00 | 55.54738 | 13.37393 | 229 ft | 9 kts | 172° |
| 2026-05-07 18:00 | 55.54661 | 13.37409 | 231 ft | 25 kts | 173° |
| 2026-05-07 18:00 | 55.54239 | 13.37495 | 238 ft | 96 kts | 173° |
| 2026-05-07 18:01 | 55.53373 | 13.37675 | 238 ft | 152 kts | 173° |
| 2026-05-07 18:01 | 55.52229 | 13.37889 | 628 ft | 164 kts | 177° |
| 2026-05-07 18:01 | 55.51071 | 13.38079 | 1249 ft | 177 kts | 177° |
| 2026-05-07 18:01 | 55.49741 | 13.38267 | 1604 ft | 197 kts | 176° |
| 2026-05-07 18:02 | 55.46943 | 13.38854 | 2699 ft | 215 kts | 174° |
| 2026-05-07 18:02 | 55.45436 | 13.39116 | 3196 ft | 222 kts | 175° |
| 2026-05-07 18:02 | 55.43821 | 13.39331 | 3473 ft | 242 kts | 176° |
| 2026-05-07 18:03 | 55.42120 | 13.39551 | 3937 ft | 252 kts | 175° |
| 2026-05-07 18:03 | 55.40295 | 13.39808 | 4234 ft | 274 kts | 175° |
| 2026-05-07 18:03 | 55.38397 | 13.40047 | 5133 ft | 272 kts | 175° |
| 2026-05-07 18:03 | 55.36506 | 13.40277 | 5975 ft | 274 kts | 175° |
| 2026-05-07 18:04 | 55.34597 | 13.40521 | 6771 ft | 276 kts | 172° |
| 2026-05-07 18:04 | 55.32786 | 13.41555 | 7476 ft | 276 kts | 143° |
| 2026-05-07 18:04 | 55.31440 | 13.43911 | 8233 ft | 275 kts | 124° |
| 2026-05-07 18:04 | 55.30350 | 13.46684 | 8974 ft | 278 kts | 122° |
| 2026-05-07 18:05 | 55.29280 | 13.49548 | 9718 ft | 282 kts | 122° |
| 2026-05-07 18:05 | 55.28219 | 13.52407 | 10410 ft | 286 kts | 122° |
| 2026-05-07 18:05 | 55.27092 | 13.55429 | 10613 ft | 308 kts | 122° |
| 2026-05-07 18:05 | 55.25874 | 13.58673 | 10789 ft | 329 kts | 122° |
| 2026-05-07 18:06 | 55.24571 | 13.62119 | 10942 ft | 349 kts | 122° |
| 2026-05-07 18:06 | 55.23191 | 13.65748 | 11298 ft | 362 kts | 123° |
| 2026-05-07 18:06 | 55.21779 | 13.69442 | 11887 ft | 366 kts | 123° |
| 2026-05-07 18:06 | 55.20351 | 13.73167 | 12548 ft | 370 kts | 123° |
| 2026-05-07 18:07 | 55.18905 | 13.76932 | 13157 ft | 374 kts | 123° |
| 2026-05-07 18:07 | 55.17445 | 13.80726 | 13769 ft | 378 kts | 123° |
| 2026-05-07 18:07 | 55.15980 | 13.84528 | 14332 ft | 382 kts | 123° |
| 2026-05-07 18:07 | 55.14487 | 13.88396 | 14897 ft | 385 kts | 124° |
| 2026-05-07 18:08 | 55.12982 | 13.92289 | 15458 ft | 388 kts | 124° |
| 2026-05-07 18:08 | 55.11462 | 13.96218 | 16014 ft | 391 kts | 124° |
| 2026-05-07 18:08 | 55.09930 | 14.00169 | 16559 ft | 394 kts | 124° |
| 2026-05-07 18:08 | 55.08385 | 14.04151 | 17096 ft | 398 kts | 124° |
| 2026-05-07 18:09 | 55.06825 | 14.08162 | 17615 ft | 401 kts | 124° |
| 2026-05-07 18:09 | 55.05253 | 14.12222 | 18125 ft | 405 kts | 123° |
| 2026-05-07 18:09 | 55.03809 | 14.16390 | 18601 ft | 408 kts | 120° |
| 2026-05-07 18:09 | 55.02431 | 14.20732 | 19071 ft | 411 kts | 118° |
| 2026-05-07 18:10 | 55.01060 | 14.25124 | 19536 ft | 413 kts | 118° |
| 2026-05-07 18:10 | 54.99672 | 14.29528 | 19986 ft | 417 kts | 119° |
| 2026-05-07 18:10 | 54.98254 | 14.33950 | 20431 ft | 420 kts | 120° |
| 2026-05-07 18:10 | 54.96814 | 14.38386 | 20873 ft | 422 kts | 120° |
| 2026-05-07 18:11 | 54.95358 | 14.42850 | 21307 ft | 426 kts | 120° |
| 2026-05-07 18:11 | 54.94437 | 14.45861 | 21586 ft | 428 kts | 116° |
| 2026-05-07 18:11 | 54.92802 | 14.52223 | 22156 ft | 432 kts | 113° |
| 2026-05-07 18:11 | 54.91633 | 14.57053 | 22577 ft | 435 kts | 113° |
| 2026-05-07 18:12 | 54.90458 | 14.61916 | 22988 ft | 438 kts | 113° |
| 2026-05-07 18:12 | 54.89257 | 14.66818 | 23390 ft | 441 kts | 114° |
| 2026-05-07 18:12 | 54.88035 | 14.71739 | 23780 ft | 444 kts | 114° |
| 2026-05-07 18:12 | 54.86798 | 14.76666 | 24153 ft | 446 kts | 114° |
| 2026-05-07 18:13 | 54.85568 | 14.81538 | 24546 ft | 447 kts | 114° |
| 2026-05-07 18:13 | 54.84317 | 14.86486 | 24926 ft | 448 kts | 114° |
| 2026-05-07 18:13 | 54.83059 | 14.91446 | 25290 ft | 450 kts | 114° |
| 2026-05-07 18:13 | 54.81756 | 14.96394 | 25647 ft | 451 kts | 117° |
| 2026-05-07 18:14 | 54.80315 | 15.01247 | 25984 ft | 453 kts | 119° |
| 2026-05-07 18:14 | 54.78802 | 15.06048 | 26347 ft | 454 kts | 120° |
| 2026-05-07 18:14 | 54.77265 | 15.10842 | 26678 ft | 455 kts | 120° |
| 2026-05-07 18:14 | 54.75728 | 15.15644 | 27035 ft | 457 kts | 120° |
| 2026-05-07 18:15 | 54.74214 | 15.20414 | 27366 ft | 458 kts | 120° |
| 2026-05-07 18:15 | 54.72680 | 15.25274 | 27685 ft | 460 kts | 120° |
| 2026-05-07 18:15 | 54.71149 | 15.30144 | 28010 ft | 462 kts | 120° |
| 2026-05-07 18:15 | 54.69613 | 15.35031 | 28326 ft | 463 kts | 120° |
| 2026-05-07 18:16 | 54.68070 | 15.39932 | 28679 ft | 464 kts | 120° |
| 2026-05-07 18:16 | 54.66530 | 15.44815 | 29122 ft | 462 kts | 120° |
| 2026-05-07 18:16 | 54.64993 | 15.49676 | 29649 ft | 458 kts | 120° |
| 2026-05-07 18:16 | 54.63469 | 15.54490 | 30125 ft | 456 kts | 120° |
| 2026-05-07 18:17 | 54.61936 | 15.59208 | 30474 ft | 455 kts | 123° |
| 2026-05-07 18:17 | 54.60178 | 15.63742 | 30735 ft | 455 kts | 126° |
| 2026-05-07 18:17 | 54.58340 | 15.68195 | 31017 ft | 455 kts | 127° |
| 2026-05-07 18:17 | 54.56477 | 15.72596 | 31337 ft | 454 kts | 127° |
| 2026-05-07 18:18 | 54.54602 | 15.76990 | 31654 ft | 453 kts | 128° |
| 2026-05-07 18:18 | 54.52732 | 15.81369 | 31949 ft | 453 kts | 128° |
| 2026-05-07 18:18 | 54.50865 | 15.85748 | 32233 ft | 453 kts | 128° |
| 2026-05-07 18:18 | 54.49004 | 15.90124 | 32555 ft | 452 kts | 128° |
| 2026-05-07 18:19 | 54.47150 | 15.94490 | 32851 ft | 451 kts | 128° |
| 2026-05-07 18:19 | 54.45301 | 15.98845 | 33121 ft | 451 kts | 128° |
| 2026-05-07 18:19 | 54.43450 | 16.03202 | 33396 ft | 451 kts | 128° |
| 2026-05-07 18:19 | 54.41625 | 16.07491 | 33689 ft | 450 kts | 129° |
| 2026-05-07 18:20 | 54.39778 | 16.11824 | 33959 ft | 449 kts | 129° |
| 2026-05-07 18:20 | 54.37932 | 16.16148 | 34199 ft | 449 kts | 129° |
| 2026-05-07 18:20 | 54.36086 | 16.20464 | 34382 ft | 449 kts | 129° |
| 2026-05-07 18:20 | 54.34242 | 16.24784 | 34554 ft | 449 kts | 128° |
| 2026-05-07 18:21 | 54.32448 | 16.29198 | 34741 ft | 450 kts | 127° |
| 2026-05-07 18:21 | 54.30695 | 16.33656 | 34923 ft | 450 kts | 127° |
| 2026-05-07 18:21 | 54.28960 | 16.38118 | 35080 ft | 451 kts | 127° |
| 2026-05-07 18:22 | 54.25486 | 16.47018 | 35100 ft | 452 kts | 127° |
| 2026-05-07 18:22 | 54.21980 | 16.55892 | 35106 ft | 449 kts | 127° |
| 2026-05-07 18:23 | 54.18469 | 16.64702 | 35105 ft | 447 kts | 128° |
| 2026-05-07 18:23 | 54.14962 | 16.73454 | 35100 ft | 445 kts | 128° |
| 2026-05-07 18:24 | 54.11489 | 16.82091 | 35104 ft | 444 kts | 128° |
| 2026-05-07 18:24 | 54.07993 | 16.90758 | 35096 ft | 444 kts | 128° |
| 2026-05-07 18:25 | 54.04487 | 16.99421 | 35097 ft | 444 kts | 128° |
| 2026-05-07 18:25 | 54.00971 | 17.08078 | 35092 ft | 445 kts | 128° |
| 2026-05-07 18:26 | 53.97444 | 17.16731 | 35089 ft | 446 kts | 129° |
| 2026-05-07 18:26 | 53.93905 | 17.25386 | 35089 ft | 446 kts | 129° |
| 2026-05-07 18:27 | 53.90377 | 17.33985 | 35088 ft | 447 kts | 129° |
| 2026-05-07 18:27 | 53.86816 | 17.42634 | 35083 ft | 447 kts | 129° |
| 2026-05-07 18:28 | 53.83249 | 17.51269 | 35078 ft | 446 kts | 129° |
| 2026-05-07 18:28 | 53.79701 | 17.59827 | 35078 ft | 446 kts | 129° |
| 2026-05-07 18:29 | 53.76132 | 17.68407 | 35077 ft | 445 kts | 129° |
| 2026-05-07 18:29 | 53.72563 | 17.76957 | 35070 ft | 444 kts | 129° |
| 2026-05-07 18:30 | 53.69000 | 17.85464 | 35073 ft | 444 kts | 130° |
| 2026-05-07 18:30 | 53.65431 | 17.93955 | 35073 ft | 443 kts | 130° |
| 2026-05-07 18:31 | 53.61860 | 18.02424 | 35071 ft | 443 kts | 130° |
| 2026-05-07 18:31 | 53.58305 | 18.10825 | 35071 ft | 443 kts | 130° |
| 2026-05-07 18:32 | 53.54726 | 18.19256 | 35071 ft | 443 kts | 130° |
| 2026-05-07 18:32 | 53.51719 | 18.26316 | 35075 ft | 443 kts | 130° |
| 2026-05-07 18:33 | 53.48121 | 18.34740 | 35071 ft | 444 kts | 130° |
| 2026-05-07 18:33 | 53.44513 | 18.43160 | 35070 ft | 444 kts | 131° |
| 2026-05-07 18:34 | 53.40919 | 18.51519 | 35064 ft | 445 kts | 131° |
| 2026-05-07 18:34 | 53.37288 | 18.59935 | 35061 ft | 446 kts | 131° |
| 2026-05-07 18:34 | 53.35468 | 18.64144 | 34903 ft | 449 kts | 131° |
| 2026-05-07 18:35 | 53.33621 | 18.68400 | 34285 ft | 452 kts | 131° |
| 2026-05-07 18:35 | 53.31780 | 18.72646 | 33713 ft | 447 kts | 131° |
| 2026-05-07 18:35 | 53.29961 | 18.76839 | 33079 ft | 443 kts | 132° |
| 2026-05-07 18:35 | 53.28153 | 18.80999 | 32467 ft | 439 kts | 132° |
| 2026-05-07 18:36 | 53.26364 | 18.85105 | 31857 ft | 435 kts | 133° |
| 2026-05-07 18:36 | 53.24605 | 18.89135 | 31275 ft | 432 kts | 133° |
| 2026-05-07 18:36 | 53.22832 | 18.93186 | 30710 ft | 432 kts | 133° |
| 2026-05-07 18:36 | 53.21045 | 18.97255 | 30152 ft | 436 kts | 133° |
| 2026-05-07 18:37 | 53.19246 | 19.01341 | 29494 ft | 440 kts | 133° |
| 2026-05-07 18:37 | 53.17420 | 19.05484 | 28860 ft | 446 kts | 133° |
| 2026-05-07 18:37 | 53.15573 | 19.09671 | 28221 ft | 449 kts | 133° |
| 2026-05-07 18:37 | 53.13715 | 19.13882 | 27610 ft | 451 kts | 133° |
| 2026-05-07 18:38 | 53.11875 | 19.18048 | 27020 ft | 453 kts | 133° |
| 2026-05-07 18:38 | 53.09999 | 19.22291 | 26418 ft | 455 kts | 132° |
| 2026-05-07 18:38 | 53.08119 | 19.26535 | 25837 ft | 456 kts | 132° |
| 2026-05-07 18:38 | 53.06228 | 19.30796 | 25272 ft | 457 kts | 132° |
| 2026-05-07 18:39 | 53.04338 | 19.35049 | 24712 ft | 458 kts | 132° |
| 2026-05-07 18:39 | 53.02455 | 19.39280 | 24156 ft | 452 kts | 132° |
| 2026-05-07 18:39 | 53.00597 | 19.43454 | 23612 ft | 446 kts | 132° |
| 2026-05-07 18:39 | 52.98762 | 19.47566 | 22975 ft | 441 kts | 132° |
| 2026-05-07 18:40 | 52.96941 | 19.51635 | 22358 ft | 438 kts | 132° |
| 2026-05-07 18:40 | 52.95132 | 19.55669 | 21731 ft | 435 kts | 131° |
| 2026-05-07 18:40 | 52.93328 | 19.59680 | 21139 ft | 432 kts | 131° |
| 2026-05-07 18:40 | 52.91560 | 19.63608 | 20598 ft | 429 kts | 131° |
| 2026-05-07 18:41 | 52.89765 | 19.67591 | 20184 ft | 423 kts | 131° |
| 2026-05-07 18:41 | 52.88036 | 19.71424 | 19791 ft | 419 kts | 131° |
| 2026-05-07 18:41 | 52.86283 | 19.75299 | 19428 ft | 421 kts | 131° |
| 2026-05-07 18:41 | 52.84519 | 19.79191 | 19070 ft | 424 kts | 130° |
| 2026-05-07 18:42 | 52.82751 | 19.83089 | 18700 ft | 422 kts | 130° |
| 2026-05-07 18:42 | 52.80992 | 19.86963 | 18345 ft | 420 kts | 130° |
| 2026-05-07 18:42 | 52.79235 | 19.90827 | 17938 ft | 419 kts | 130° |
| 2026-05-07 18:42 | 52.77486 | 19.94669 | 17538 ft | 418 kts | 130° |
| 2026-05-07 18:43 | 52.75733 | 19.98514 | 17140 ft | 417 kts | 130° |
| 2026-05-07 18:43 | 52.73990 | 20.02330 | 16740 ft | 416 kts | 130° |
| 2026-05-07 18:43 | 52.72249 | 20.06136 | 16350 ft | 415 kts | 130° |
| 2026-05-07 18:43 | 52.70514 | 20.09922 | 15965 ft | 413 kts | 130° |
| 2026-05-07 18:44 | 52.68783 | 20.13696 | 15583 ft | 411 kts | 130° |
| 2026-05-07 18:44 | 52.67059 | 20.17447 | 15212 ft | 409 kts | 130° |
| 2026-05-07 18:44 | 52.65343 | 20.21176 | 14850 ft | 407 kts | 130° |
| 2026-05-07 18:44 | 52.63657 | 20.24837 | 14490 ft | 405 kts | 130° |
| 2026-05-07 18:45 | 52.61956 | 20.28523 | 14124 ft | 403 kts | 130° |
| 2026-05-07 18:45 | 52.60267 | 20.32177 | 13765 ft | 400 kts | 130° |
| 2026-05-07 18:45 | 52.58586 | 20.35808 | 13372 ft | 398 kts | 130° |
| 2026-05-07 18:45 | 52.56913 | 20.39418 | 12963 ft | 395 kts | 130° |
| 2026-05-07 18:46 | 52.55249 | 20.43002 | 12562 ft | 393 kts | 130° |
| 2026-05-07 18:46 | 52.53589 | 20.46572 | 12188 ft | 391 kts | 130° |
| 2026-05-07 18:46 | 52.51956 | 20.50080 | 11816 ft | 389 kts | 130° |
| 2026-05-07 18:46 | 52.50313 | 20.53605 | 11440 ft | 388 kts | 130° |
| 2026-05-07 18:47 | 52.48677 | 20.57108 | 11066 ft | 386 kts | 130° |
| 2026-05-07 18:47 | 52.47047 | 20.60597 | 10698 ft | 385 kts | 130° |
| 2026-05-07 18:47 | 52.45416 | 20.64080 | 10327 ft | 383 kts | 130° |
| 2026-05-07 18:47 | 52.43793 | 20.67543 | 9968 ft | 382 kts | 129° |
| 2026-05-07 18:48 | 52.42177 | 20.70987 | 9579 ft | 380 kts | 129° |
| 2026-05-07 18:48 | 52.40565 | 20.74417 | 9189 ft | 379 kts | 129° |
| 2026-05-07 18:48 | 52.38960 | 20.77831 | 8798 ft | 377 kts | 129° |
| 2026-05-07 18:48 | 52.37378 | 20.81188 | 8412 ft | 376 kts | 129° |
| 2026-05-07 18:49 | 52.35785 | 20.84564 | 8025 ft | 373 kts | 129° |
| 2026-05-07 18:49 | 52.34219 | 20.87883 | 7637 ft | 364 kts | 129° |
| 2026-05-07 18:49 | 52.32687 | 20.91123 | 7240 ft | 355 kts | 129° |
| 2026-05-07 18:49 | 52.31189 | 20.94289 | 6868 ft | 348 kts | 129° |
| 2026-05-07 18:50 | 52.29722 | 20.97384 | 6510 ft | 341 kts | 129° |
| 2026-05-07 18:50 | 52.28288 | 21.00403 | 6258 ft | 331 kts | 129° |
| 2026-05-07 18:50 | 52.26767 | 21.03135 | 5997 ft | 319 kts | 145° |
| 2026-05-07 18:50 | 52.24882 | 21.04912 | 5773 ft | 307 kts | 154° |
| 2026-05-07 18:51 | 52.23024 | 21.06467 | 5543 ft | 300 kts | 154° |
| 2026-05-07 18:51 | 52.21199 | 21.08007 | 5336 ft | 292 kts | 154° |
| 2026-05-07 18:51 | 52.19421 | 21.09525 | 5125 ft | 284 kts | 154° |
| 2026-05-07 18:51 | 52.17691 | 21.11011 | 4923 ft | 278 kts | 153° |
| 2026-05-07 18:52 | 52.15993 | 21.12470 | 4700 ft | 271 kts | 153° |
| 2026-05-07 18:52 | 52.14346 | 21.13895 | 4491 ft | 265 kts | 153° |
| 2026-05-07 18:52 | 52.12738 | 21.15304 | 4277 ft | 260 kts | 153° |
| 2026-05-07 18:52 | 52.11165 | 21.16684 | 4082 ft | 254 kts | 153° |
| 2026-05-07 18:53 | 52.09642 | 21.18019 | 3997 ft | 243 kts | 153° |
| 2026-05-07 18:53 | 52.08197 | 21.19284 | 3987 ft | 237 kts | 153° |
| 2026-05-07 18:53 | 52.06747 | 21.20550 | 3971 ft | 236 kts | 153° |
| 2026-05-07 18:53 | 52.05276 | 21.21832 | 3819 ft | 241 kts | 153° |
| 2026-05-07 18:54 | 52.03798 | 21.23120 | 3672 ft | 241 kts | 153° |
| 2026-05-07 18:54 | 52.02226 | 21.23910 | 3489 ft | 236 kts | 182° |
| 2026-05-07 18:54 | 52.00691 | 21.23248 | 3347 ft | 227 kts | 214° |
| 2026-05-07 18:54 | 51.99557 | 21.21517 | 3200 ft | 223 kts | 236° |
| 2026-05-07 18:55 | 51.98763 | 21.19357 | 3073 ft | 224 kts | 243° |
| 2026-05-07 18:55 | 51.98048 | 21.17115 | 2992 ft | 223 kts | 250° |
| 2026-05-07 18:55 | 51.97949 | 21.14677 | 2983 ft | 219 kts | 290° |
| 2026-05-07 18:55 | 51.98841 | 21.12761 | 2999 ft | 220 kts | 324° |
| 2026-05-07 18:56 | 52.00101 | 21.11343 | 2997 ft | 218 kts | 326° |
| 2026-05-07 18:56 | 52.01358 | 21.10104 | 2988 ft | 203 kts | 330° |
| 2026-05-07 18:56 | 52.02543 | 21.09046 | 2970 ft | 186 kts | 330° |
| 2026-05-07 18:56 | 52.03670 | 21.08058 | 2970 ft | 183 kts | 330° |
| 2026-05-07 18:57 | 52.04805 | 21.07061 | 2781 ft | 185 kts | 331° |
| 2026-05-07 18:57 | 52.05931 | 21.06071 | 2528 ft | 182 kts | 332° |
| 2026-05-07 18:57 | 52.07032 | 21.05102 | 2288 ft | 178 kts | 333° |
| 2026-05-07 18:57 | 52.08097 | 21.04169 | 2037 ft | 168 kts | 332° |
| 2026-05-07 18:58 | 52.09063 | 21.03315 | 1875 ft | 153 kts | 333° |
| 2026-05-07 18:58 | 52.09980 | 21.02510 | 1638 ft | 146 kts | 333° |
| 2026-05-07 18:58 | 52.10875 | 21.01724 | 1440 ft | 147 kts | 333° |
| 2026-05-07 18:58 | 52.11782 | 21.00927 | 1222 ft | 150 kts | 333° |
| 2026-05-07 18:59 | 52.12708 | 21.00113 | 1020 ft | 152 kts | 332° |
| 2026-05-07 18:59 | 52.13637 | 20.99287 | 797 ft | 151 kts | 330° |
| 2026-05-07 18:59 | 52.14556 | 20.98462 | 612 ft | 148 kts | 330° |
| 2026-05-07 18:59 | 52.15444 | 20.97700 | 383 ft | 140 kts | 331° |
| 2026-05-07 19:00 | 52.16234 | 20.97009 | 337 ft | 110 kts | 332° |
| 2026-05-07 19:00 | 52.16775 | 20.96537 | 338 ft | 68 kts | 332° |
| 2026-05-07 19:00 | 52.17091 | 20.96273 | 333 ft | 41 kts | 342° |
| 2026-05-07 19:00 | 52.17283 | 20.96244 | 334 ft | 15 kts | 1° |
| 2026-05-07 19:01 | 52.17361 | 20.96251 | 337 ft | 10 kts | 11° |
| 2026-05-07 19:01 | 52.17410 | 20.96325 | 335 ft | 10 kts | 63° |
| 2026-05-07 19:01 | 52.17442 | 20.96423 | 336 ft | 10 kts | 62° |
| 2026-05-07 19:01 | 52.17468 | 20.96521 | 335 ft | 9 kts | 85° |
| 2026-05-07 19:02 | 52.17432 | 20.96599 | 338 ft | 9 kts | 150° |
| 2026-05-07 19:02 | 52.17376 | 20.96648 | 338 ft | 9 kts | 152° |
| 2026-05-07 19:02 | 52.17322 | 20.96694 | 333 ft | 9 kts | 152° |
| 2026-05-07 19:02 | 52.17271 | 20.96740 | 336 ft | 8 kts | 152° |
| 2026-05-07 19:03 | 52.17220 | 20.96784 | 338 ft | 8 kts | 152° |
| 2026-05-07 19:03 | 52.17171 | 20.96827 | 333 ft | 8 kts | 151° |
| 2026-05-07 19:03 | 52.17123 | 20.96870 | 337 ft | 8 kts | 152° |
| 2026-05-07 19:03 | 52.17077 | 20.96910 | 336 ft | 7 kts | 152° |
| 2026-05-07 19:04 | 52.17033 | 20.96952 | 338 ft | 7 kts | 136° |
| 2026-05-07 19:04 | 52.17031 | 20.97024 | 335 ft | 6 kts | 74° |
| 2026-05-07 19:04 | 52.17043 | 20.97084 | 335 ft | 5 kts | 70° |
| 2026-05-07 19:04 | 52.17046 | 20.97099 | 337 ft | 0 kts | 70° |
| 2026-05-07 19:05 | 52.17047 | 20.97102 | 337 ft | 0 kts | 70° |